createdAt,value
2023-05-22T00:00:21.076Z,17.18
2023-05-22T00:01:26.585Z,17.18
2023-05-22T00:02:28.864Z,17.19
2023-05-22T00:03:31.417Z,17.23
2023-05-22T00:04:33.904Z,17.15
2023-05-22T00:05:38.960Z,17.11
2023-05-22T00:06:42.770Z,17.14
2023-05-22T00:07:46.190Z,17.11
2023-05-22T00:08:48.434Z,17.05
2023-05-22T00:09:50.617Z,17.01
2023-05-22T00:10:53.033Z,17.07
2023-05-22T00:11:55.272Z,17.19
2023-05-22T00:12:57.398Z,17.24
2023-05-22T00:13:59.520Z,17.32
2023-05-22T00:15:02.139Z,17.40
2023-05-22T00:16:04.464Z,17.45
2023-05-22T00:17:06.700Z,17.45
2023-05-22T00:18:09.041Z,17.38
2023-05-22T00:19:13.333Z,17.39
2023-05-22T00:20:15.968Z,17.39
2023-05-22T00:21:18.624Z,17.37
2023-05-22T00:22:21.118Z,17.32
2023-05-22T00:23:23.731Z,17.29
2023-05-22T00:24:25.948Z,17.21
2023-05-22T00:25:28.106Z,17.17
2023-05-22T00:26:30.250Z,17.15
2023-05-22T00:27:33.208Z,17.18
2023-05-22T00:28:35.381Z,17.18
2023-05-22T00:29:37.718Z,17.21
2023-05-22T00:30:40.193Z,17.17
2023-05-22T00:31:42.479Z,17.16
2023-05-22T00:32:44.752Z,17.11
2023-05-22T00:33:46.900Z,17.08
2023-05-22T00:34:49.391Z,17.11
2023-05-22T00:35:51.729Z,17.11
2023-05-22T00:36:53.865Z,17.16
2023-05-22T00:37:56.027Z,17.14
2023-05-22T00:38:58.199Z,17.08
2023-05-22T00:40:00.374Z,17.04
2023-05-22T00:41:04.288Z,17.02
2023-05-22T00:42:06.560Z,17.02
2023-05-22T00:43:09.381Z,17.06
2023-05-22T00:44:12.080Z,17.06
2023-05-22T00:45:15.037Z,17.05
2023-05-22T00:46:21.584Z,17.02
2023-05-22T00:47:24.088Z,16.98
2023-05-22T00:48:26.319Z,16.96
2023-05-22T00:49:28.497Z,16.96
2023-05-22T00:50:30.726Z,16.97
2023-05-22T00:51:33.058Z,16.96
2023-05-22T00:52:38.355Z,16.95
2023-05-22T00:53:40.660Z,16.91
2023-05-22T00:54:43.372Z,16.86
2023-05-22T00:55:45.603Z,16.81
2023-05-22T00:56:48.825Z,16.75
2023-05-22T00:57:51.967Z,16.75
2023-05-22T00:58:54.186Z,16.80
2023-05-22T00:59:56.384Z,16.80
2023-05-22T01:00:59.076Z,16.77
2023-05-22T01:02:01.724Z,16.72
2023-05-22T01:03:08.019Z,16.77
2023-05-22T01:04:12.064Z,16.71
2023-05-22T01:05:18.423Z,16.65
2023-05-22T01:06:24.387Z,16.60
2023-05-22T01:07:26.576Z,16.59
2023-05-22T01:08:28.821Z,16.52
2023-05-22T01:09:31.238Z,16.41
2023-05-22T01:10:34.487Z,16.39
2023-05-22T01:11:39.094Z,16.43
2023-05-22T01:12:48.958Z,16.47
2023-05-22T01:13:57.563Z,16.54
2023-05-22T01:15:36.864Z,16.52
2023-05-22T01:17:02.436Z,16.54
2023-05-22T01:18:26.375Z,16.54
2023-05-22T01:20:01.686Z,16.51
2023-05-22T01:21:16.131Z,16.44
2023-05-22T01:22:34.061Z,16.42
2023-05-22T01:24:13.942Z,16.39
2023-05-22T01:25:47.591Z,16.37
2023-05-22T01:27:16.176Z,16.32
2023-05-22T01:29:03.731Z,16.25
2023-05-22T01:30:18.255Z,16.28
2023-05-22T01:31:25.048Z,16.37
2023-05-22T01:32:29.035Z,16.38
2023-05-22T01:33:34.100Z,16.39
2023-05-22T01:34:38.416Z,16.39
2023-05-22T01:35:41.861Z,16.35
2023-05-22T01:36:46.240Z,16.37
2023-05-22T01:37:48.588Z,16.42
2023-05-22T01:38:52.851Z,16.39
2023-05-22T01:39:56.226Z,16.37
2023-05-22T01:40:58.407Z,16.28
2023-05-22T01:42:00.664Z,16.20
2023-05-22T01:43:02.877Z,16.17
2023-05-22T01:44:05.096Z,16.18
2023-05-22T01:45:10.058Z,16.21
2023-05-22T01:46:12.270Z,16.16
2023-05-22T01:47:15.093Z,16.11
2023-05-22T01:48:17.244Z,16.14
2023-05-22T01:49:19.519Z,16.08
2023-05-22T01:50:21.686Z,16.11
2023-05-22T01:51:29.538Z,16.11
2023-05-22T01:52:43.789Z,16.11
2023-05-22T01:54:20.168Z,16.10
2023-05-22T01:55:35.266Z,16.07
2023-05-22T01:56:43.432Z,16.11
2023-05-22T01:58:10.993Z,16.06
2023-05-22T01:59:19.760Z,16.00
2023-05-22T02:00:22.696Z,15.95
2023-05-22T02:01:27.475Z,15.92
2023-05-22T02:02:30.359Z,15.89
2023-05-22T02:03:33.932Z,15.94
2023-05-22T02:04:42.969Z,15.87
2023-05-22T02:05:45.945Z,15.86
2023-05-22T02:06:48.922Z,15.83
2023-05-22T02:07:51.850Z,15.83
2023-05-22T02:08:55.136Z,15.85
2023-05-22T02:09:57.945Z,15.88
2023-05-22T02:11:01.026Z,15.90
2023-05-22T02:12:03.473Z,15.93
2023-05-22T02:13:05.871Z,15.92
2023-05-22T02:14:09.292Z,15.96
2023-05-22T02:15:11.535Z,15.96
2023-05-22T02:16:14.187Z,15.91
2023-05-22T02:17:18.218Z,15.92
2023-05-22T02:18:20.801Z,15.85
2023-05-22T02:19:22.945Z,15.82
2023-05-22T02:20:25.164Z,15.75
2023-05-22T02:21:27.318Z,15.70
2023-05-22T02:22:29.462Z,15.69
2023-05-22T02:23:31.632Z,15.69
2023-05-22T02:24:36.672Z,15.66
2023-05-22T02:25:38.846Z,15.65
2023-05-22T02:26:42.472Z,15.63
2023-05-22T02:27:46.014Z,15.59
2023-05-22T02:28:48.375Z,15.63
2023-05-22T02:29:50.693Z,15.68
2023-05-22T02:30:53.017Z,15.70
2023-05-22T02:31:55.373Z,15.69
2023-05-22T02:33:00.315Z,15.61
2023-05-22T02:34:05.387Z,15.60
2023-05-22T02:35:08.212Z,15.67
2023-05-22T02:36:11.147Z,15.71
2023-05-22T02:37:15.817Z,15.73
2023-05-22T02:38:17.878Z,15.77
2023-05-22T02:39:19.982Z,15.76
2023-05-22T02:40:22.096Z,15.80
2023-05-22T02:41:24.304Z,15.84
2023-05-22T02:42:26.670Z,15.85
2023-05-22T02:43:28.862Z,15.82
2023-05-22T02:44:31.021Z,15.80
2023-05-22T02:45:33.190Z,15.77
2023-05-22T02:46:35.588Z,15.80
2023-05-22T02:47:37.830Z,15.76
2023-05-22T02:48:40.087Z,15.73
2023-05-22T02:49:42.247Z,15.76
2023-05-22T02:50:44.414Z,15.72
2023-05-22T02:51:47.988Z,15.67
2023-05-22T02:52:50.613Z,15.66
2023-05-22T02:53:53.236Z,15.67
2023-05-22T02:54:55.354Z,15.65
2023-05-22T02:55:58.974Z,15.65
2023-05-22T02:57:01.237Z,15.59
2023-05-22T02:58:03.557Z,15.56
2023-05-22T02:59:05.824Z,15.55
2023-05-22T03:00:11.640Z,15.52
2023-05-22T03:01:14.007Z,15.50
2023-05-22T03:02:16.631Z,15.47
2023-05-22T03:03:19.077Z,15.43
2023-05-22T03:04:21.498Z,15.37
2023-05-22T03:05:23.645Z,15.36
2023-05-22T03:06:25.793Z,15.38
2023-05-22T03:07:29.721Z,15.34
2023-05-22T03:08:32.145Z,15.33
2023-05-22T03:09:34.356Z,15.37
2023-05-22T03:10:36.593Z,15.37
2023-05-22T03:11:38.995Z,15.39
2023-05-22T03:12:41.218Z,15.40
2023-05-22T03:13:43.442Z,15.38
2023-05-22T03:14:46.579Z,15.44
2023-05-22T03:15:48.749Z,15.43
2023-05-22T03:16:50.979Z,15.40
2023-05-22T03:17:53.221Z,15.42
2023-05-22T03:19:11.526Z,15.47
2023-05-22T03:20:17.118Z,15.48
2023-05-22T03:21:19.421Z,15.47
2023-05-22T03:22:21.636Z,15.48
2023-05-22T03:23:25.239Z,15.44
2023-05-22T03:24:27.816Z,15.43
2023-05-22T03:25:29.980Z,15.43
2023-05-22T03:26:32.154Z,15.41
2023-05-22T03:27:34.260Z,15.42
2023-05-22T03:28:36.617Z,15.41
2023-05-22T03:29:38.799Z,15.40
2023-05-22T03:30:41.709Z,15.39
2023-05-22T03:31:44.155Z,15.38
2023-05-22T03:32:46.393Z,15.32
2023-05-22T03:33:48.877Z,15.35
2023-05-22T03:34:51.135Z,15.42
2023-05-22T03:35:53.395Z,15.39
2023-05-22T03:36:57.952Z,15.44
2023-05-22T03:38:00.008Z,15.45
2023-05-22T03:39:03.262Z,15.46
2023-05-22T03:40:06.092Z,15.45
2023-05-22T03:41:08.294Z,15.47
2023-05-22T03:42:10.538Z,15.46
2023-05-22T03:43:12.678Z,15.45
2023-05-22T03:44:14.826Z,15.44
2023-05-22T03:45:17.000Z,15.46
2023-05-22T03:46:19.349Z,15.48
2023-05-22T03:47:21.577Z,15.49
2023-05-22T03:48:23.766Z,15.54
2023-05-22T03:49:25.886Z,15.56
2023-05-22T03:50:28.006Z,15.60
2023-05-22T03:51:31.582Z,15.66
2023-05-22T03:52:33.849Z,15.68
2023-05-22T03:53:35.973Z,15.66
2023-05-22T03:54:38.132Z,15.64
2023-05-22T03:55:40.458Z,15.68
2023-05-22T03:56:43.454Z,15.72
2023-05-22T03:57:45.594Z,15.73
2023-05-22T03:58:47.794Z,15.74
2023-05-22T03:59:49.996Z,15.83
2023-05-22T04:00:55.699Z,15.91
2023-05-22T04:01:58.187Z,15.93
2023-05-22T04:03:00.765Z,15.99
2023-05-22T04:04:05.584Z,16.01
2023-05-22T04:05:09.595Z,16.09
2023-05-22T04:06:13.833Z,16.14
2023-05-22T04:07:18.639Z,16.15
2023-05-22T04:08:20.842Z,16.21
2023-05-22T04:09:22.951Z,16.24
2023-05-22T04:10:25.195Z,16.29
2023-05-22T04:11:30.510Z,16.31
2023-05-22T04:12:32.900Z,16.34
2023-05-22T04:13:35.194Z,16.33
2023-05-22T04:14:37.379Z,16.38
2023-05-22T04:15:43.007Z,16.41
2023-05-22T04:16:45.167Z,16.52
2023-05-22T04:17:47.465Z,16.57
2023-05-22T04:18:49.623Z,16.61
2023-05-22T04:19:51.783Z,16.64
2023-05-22T04:20:53.930Z,16.67
2023-05-22T04:21:57.892Z,16.76
2023-05-22T04:23:00.061Z,16.78
2023-05-22T04:24:06.980Z,16.84
2023-05-22T04:25:09.925Z,16.89
2023-05-22T04:26:12.088Z,16.95
2023-05-22T04:27:14.245Z,16.95
2023-05-22T04:28:17.693Z,16.91
2023-05-22T04:29:22.370Z,16.95
2023-05-22T04:30:25.737Z,16.97
2023-05-22T04:31:28.422Z,16.97
2023-05-22T04:32:30.642Z,17.04
2023-05-22T04:33:34.517Z,17.06
2023-05-22T04:34:39.862Z,17.09
2023-05-22T04:35:42.395Z,17.08
2023-05-22T04:36:48.025Z,17.11
2023-05-22T04:37:50.280Z,17.13
2023-05-22T04:38:53.127Z,17.11
2023-05-22T04:39:58.223Z,17.13
2023-05-22T04:41:00.495Z,17.16
2023-05-22T04:42:05.923Z,17.18
2023-05-22T04:43:08.631Z,17.23
2023-05-22T04:44:10.806Z,17.26
2023-05-22T04:45:14.134Z,17.26
2023-05-22T04:46:16.387Z,17.29
2023-05-22T04:47:19.369Z,17.34
2023-05-22T04:48:21.522Z,17.41
2023-05-22T04:49:24.832Z,17.46
2023-05-22T04:50:27.018Z,17.45
2023-05-22T04:51:31.134Z,17.45
2023-05-22T04:52:33.303Z,17.53
2023-05-22T04:53:36.088Z,17.59
2023-05-22T04:54:43.386Z,17.63
2023-05-22T04:55:46.121Z,17.66
2023-05-22T04:56:48.252Z,17.72
2023-05-22T04:57:50.469Z,17.74
2023-05-22T04:58:53.928Z,17.79
2023-05-22T04:59:57.536Z,17.83
2023-05-22T05:00:59.836Z,17.87
2023-05-22T05:02:02.112Z,17.91
2023-05-22T05:03:04.435Z,17.94
2023-05-22T05:04:06.794Z,17.98
2023-05-22T05:05:09.282Z,17.98
2023-05-22T05:06:12.670Z,18.02
2023-05-22T05:07:17.630Z,18.04
2023-05-22T05:08:19.863Z,18.12
2023-05-22T05:09:22.084Z,18.16
2023-05-22T05:10:24.406Z,18.20
2023-05-22T05:11:26.645Z,18.20
2023-05-22T05:12:28.749Z,18.12
2023-05-22T05:13:30.968Z,18.11
2023-05-22T05:14:33.122Z,18.13
2023-05-22T05:15:35.229Z,18.16
2023-05-22T05:16:37.400Z,18.19
2023-05-22T05:17:39.614Z,18.18
2023-05-22T05:18:41.750Z,18.23
2023-05-22T05:19:44.367Z,18.19
2023-05-22T05:20:46.699Z,18.26
2023-05-22T05:21:52.408Z,18.23
2023-05-22T05:22:54.681Z,18.29
2023-05-22T05:23:56.859Z,18.35
2023-05-22T05:24:59.135Z,18.38
2023-05-22T05:26:01.549Z,18.34
2023-05-22T05:27:03.791Z,18.29
2023-05-22T05:28:11.656Z,18.34
2023-05-22T05:29:13.879Z,18.31
2023-05-22T05:30:17.573Z,18.34
2023-05-22T05:31:21.129Z,18.36
2023-05-22T05:32:23.404Z,18.39
2023-05-22T05:33:25.749Z,18.42
2023-05-22T05:34:27.866Z,18.42
2023-05-22T05:35:30.074Z,18.38
2023-05-22T05:36:32.468Z,18.35
2023-05-22T05:37:34.632Z,18.43
2023-05-22T05:38:36.910Z,18.48
2023-05-22T05:39:39.042Z,18.46
2023-05-22T05:40:41.960Z,18.48
2023-05-22T05:41:44.115Z,18.43
2023-05-22T05:42:46.222Z,18.44
2023-05-22T05:43:48.412Z,18.41
2023-05-22T05:44:50.510Z,18.38
2023-05-22T05:45:52.909Z,18.45
2023-05-22T05:46:55.118Z,18.51
2023-05-22T05:47:57.271Z,18.54
2023-05-22T05:48:59.529Z,18.60
2023-05-22T05:50:01.814Z,18.68
2023-05-22T05:51:05.109Z,18.69
2023-05-22T05:52:08.199Z,18.72
2023-05-22T05:53:10.494Z,18.71
2023-05-22T05:54:12.618Z,18.66
2023-05-22T05:55:14.900Z,18.68
2023-05-22T05:56:17.083Z,18.70
2023-05-22T05:57:19.254Z,18.70
2023-05-22T05:58:21.436Z,18.66
2023-05-22T05:59:24.435Z,18.61
2023-05-22T06:00:26.764Z,18.61
2023-05-22T06:01:31.239Z,18.60
2023-05-22T06:02:34.307Z,18.69
2023-05-22T06:03:36.745Z,18.75
2023-05-22T06:04:39.311Z,18.75
2023-05-22T06:05:41.455Z,18.83
2023-05-22T06:06:44.638Z,18.85
2023-05-22T06:07:48.332Z,18.87
2023-05-22T06:08:50.548Z,18.88
2023-05-22T06:09:52.754Z,18.83
2023-05-22T06:10:54.893Z,18.79
2023-05-22T06:11:57.042Z,18.86
2023-05-22T06:12:59.169Z,18.98
2023-05-22T06:14:03.113Z,19.01
2023-05-22T06:15:07.388Z,19.04
2023-05-22T06:16:10.108Z,19.05
2023-05-22T06:17:12.536Z,19.07
2023-05-22T06:18:15.143Z,19.09
2023-05-22T06:19:17.454Z,19.00
2023-05-22T06:20:19.761Z,18.95
2023-05-22T06:21:22.033Z,18.93
2023-05-22T06:22:26.441Z,18.87
2023-05-22T06:23:28.878Z,18.89
2023-05-22T06:24:32.542Z,18.88
2023-05-22T06:25:35.021Z,18.89
2023-05-22T06:26:37.471Z,18.95
2023-05-22T06:27:39.740Z,19.02
2023-05-22T06:28:41.917Z,19.13
2023-05-22T06:29:44.279Z,19.23
2023-05-22T06:30:46.579Z,19.26
2023-05-22T06:31:48.862Z,19.30
2023-05-22T06:32:52.505Z,19.37
2023-05-22T06:33:55.411Z,19.39
2023-05-22T06:34:57.727Z,19.42
2023-05-22T06:35:59.869Z,19.54
2023-05-22T06:37:03.767Z,19.52
2023-05-22T06:38:05.920Z,19.59
2023-05-22T06:39:08.781Z,19.85
2023-05-22T06:40:11.215Z,20.07
2023-05-22T06:41:13.401Z,20.26
2023-05-22T06:42:15.558Z,20.39
2023-05-22T06:43:18.629Z,20.61
2023-05-22T06:44:20.949Z,20.71
2023-05-22T06:45:23.094Z,20.81
2023-05-22T06:46:26.214Z,20.78
2023-05-22T06:47:28.638Z,20.58
2023-05-22T06:48:34.524Z,20.59
2023-05-22T06:49:36.733Z,20.80
2023-05-22T06:50:39.231Z,20.72
2023-05-22T06:51:41.445Z,20.75
2023-05-22T06:52:43.898Z,20.91
2023-05-22T06:53:46.319Z,20.94
2023-05-22T06:54:48.490Z,20.96
2023-05-22T06:55:51.162Z,20.99
2023-05-22T06:56:53.283Z,21.15
2023-05-22T06:57:55.410Z,21.15
2023-05-22T06:58:58.737Z,21.11
2023-05-22T07:00:01.187Z,21.21
2023-05-22T07:01:03.495Z,21.55
2023-05-22T07:02:06.520Z,21.60
2023-05-22T07:03:08.762Z,21.48
2023-05-22T07:04:13.305Z,21.37
2023-05-22T07:05:15.382Z,21.49
2023-05-22T07:06:18.385Z,21.80
2023-05-22T07:07:20.916Z,21.95
2023-05-22T07:08:23.695Z,22.05
2023-05-22T07:09:26.220Z,22.27
2023-05-22T07:10:28.518Z,22.41
2023-05-22T07:11:30.763Z,22.45
2023-05-22T07:12:32.879Z,22.31
2023-05-22T07:13:35.071Z,22.03
2023-05-22T07:14:37.205Z,22.03
2023-05-22T07:15:39.362Z,21.94
2023-05-22T07:16:41.707Z,21.99
2023-05-22T07:17:44.063Z,22.16
2023-05-22T07:18:46.381Z,22.31
2023-05-22T07:19:49.126Z,22.17
2023-05-22T07:20:51.465Z,22.34
2023-05-22T07:21:53.983Z,22.45
2023-05-22T07:22:58.924Z,22.59
2023-05-22T07:24:03.497Z,22.38
2023-05-22T07:25:06.608Z,22.49
2023-05-22T07:26:09.841Z,22.38
2023-05-22T07:27:12.411Z,22.23
2023-05-22T07:28:14.577Z,22.06
2023-05-22T07:29:17.022Z,22.10
2023-05-22T07:30:19.147Z,21.98
2023-05-22T07:31:21.280Z,21.80
2023-05-22T07:32:23.515Z,21.84
2023-05-22T07:33:25.990Z,21.66
2023-05-22T07:34:34.152Z,21.63
2023-05-22T07:35:36.320Z,21.78
2023-05-22T07:36:38.769Z,21.78
2023-05-22T07:37:41.405Z,21.87
2023-05-22T07:38:43.585Z,21.90
2023-05-22T07:39:46.833Z,21.85
2023-05-22T07:40:49.059Z,21.82
2023-05-22T07:41:51.341Z,21.71
2023-05-22T07:42:53.557Z,21.74
2023-05-22T07:43:55.816Z,21.64
2023-05-22T07:44:58.009Z,21.62
2023-05-22T07:46:00.250Z,21.81
2023-05-22T07:47:02.562Z,21.92
2023-05-22T07:48:04.934Z,22.02
2023-05-22T07:49:07.155Z,22.10
2023-05-22T07:50:09.507Z,22.11
2023-05-22T07:51:13.706Z,22.05
2023-05-22T07:52:16.072Z,22.12
2023-05-22T07:53:18.248Z,22.00
2023-05-22T07:54:20.484Z,22.04
2023-05-22T07:55:22.732Z,22.05
2023-05-22T07:56:25.882Z,22.14
2023-05-22T07:57:29.795Z,22.31
2023-05-22T07:58:32.285Z,22.57
2023-05-22T07:59:35.824Z,22.83
2023-05-22T08:00:37.988Z,23.01
2023-05-22T08:01:42.050Z,22.90
2023-05-22T08:02:45.078Z,23.05
2023-05-22T08:03:47.634Z,23.20
2023-05-22T08:04:50.507Z,23.35
2023-05-22T08:05:52.758Z,23.34
2023-05-22T08:06:54.880Z,22.90
2023-05-22T08:07:57.030Z,23.13
2023-05-22T08:09:00.167Z,22.86
2023-05-22T08:10:08.786Z,22.85
2023-05-22T08:11:11.188Z,22.86
2023-05-22T08:12:13.503Z,22.86
2023-05-22T08:13:18.058Z,22.48
2023-05-22T08:14:21.747Z,22.52
2023-05-22T08:15:24.005Z,22.68
2023-05-22T08:16:26.216Z,22.82
2023-05-22T08:17:28.477Z,23.03
2023-05-22T08:18:30.768Z,23.09
2023-05-22T08:19:33.169Z,23.23
2023-05-22T08:20:35.529Z,23.40
2023-05-22T08:21:37.907Z,23.41
2023-05-22T08:22:40.710Z,23.50
2023-05-22T08:23:42.904Z,23.73
2023-05-22T08:24:45.044Z,23.87
2023-05-22T08:25:47.154Z,23.86
2023-05-22T08:26:49.310Z,23.82
2023-05-22T08:27:52.085Z,23.73
2023-05-22T08:28:54.276Z,23.54
2023-05-22T08:29:56.614Z,23.65
2023-05-22T08:30:58.766Z,23.56
2023-05-22T08:32:00.955Z,23.69
2023-05-22T08:33:03.253Z,23.84
2023-05-22T08:34:06.485Z,23.77
2023-05-22T08:35:08.995Z,23.68
2023-05-22T08:36:11.430Z,23.64
2023-05-22T08:37:15.119Z,23.73
2023-05-22T08:38:17.771Z,23.87
2023-05-22T08:39:20.039Z,23.85
2023-05-22T08:40:22.368Z,23.76
2023-05-22T08:41:24.552Z,23.54
2023-05-22T08:42:26.701Z,23.69
2023-05-22T08:43:29.377Z,23.81
2023-05-22T08:44:31.553Z,23.89
2023-05-22T08:45:34.477Z,24.18
2023-05-22T08:46:41.651Z,24.18
2023-05-22T08:47:44.731Z,24.22
2023-05-22T08:48:47.870Z,24.17
2023-05-22T08:49:51.986Z,23.73
2023-05-22T08:50:58.277Z,23.89
2023-05-22T08:52:05.416Z,23.88
2023-05-22T08:53:08.468Z,24.16
2023-05-22T08:54:10.886Z,24.13
2023-05-22T08:55:13.135Z,23.95
2023-05-22T08:56:15.403Z,23.78
2023-05-22T08:57:18.151Z,23.86
2023-05-22T08:58:21.312Z,24.15
2023-05-22T08:59:23.443Z,24.29
2023-05-22T09:00:25.651Z,24.08
2023-05-22T09:01:31.209Z,24.07
2023-05-22T09:02:33.429Z,23.95
2023-05-22T09:03:36.951Z,24.12
2023-05-22T09:04:42.156Z,24.58
2023-05-22T09:05:45.446Z,24.68
2023-05-22T09:06:47.634Z,24.55
2023-05-22T09:07:50.045Z,24.79
2023-05-22T09:08:53.344Z,24.87
2023-05-22T09:09:56.308Z,25.06
2023-05-22T09:10:58.510Z,25.21
2023-05-22T09:12:01.300Z,25.32
2023-05-22T09:13:07.922Z,25.49
2023-05-22T09:14:10.657Z,25.75
2023-05-22T09:15:13.827Z,25.98
2023-05-22T09:16:16.085Z,26.23
2023-05-22T09:17:18.680Z,26.55
2023-05-22T09:18:22.112Z,27.06
2023-05-22T09:19:24.380Z,27.23
2023-05-22T09:20:26.816Z,27.49
2023-05-22T09:21:30.715Z,27.49
2023-05-22T09:22:40.017Z,27.64
2023-05-22T09:23:42.232Z,27.61
2023-05-22T09:24:45.808Z,27.83
2023-05-22T09:25:47.941Z,28.21
2023-05-22T09:26:52.564Z,27.96
2023-05-22T09:27:54.765Z,28.18
2023-05-22T09:28:59.418Z,28.18
2023-05-22T09:30:01.780Z,28.34
2023-05-22T09:31:04.684Z,28.47
2023-05-22T09:32:13.795Z,28.61
2023-05-22T09:33:17.060Z,28.15
2023-05-22T09:34:19.217Z,27.51
2023-05-22T09:35:21.983Z,27.26
2023-05-22T09:36:32.397Z,26.76
2023-05-22T09:37:35.863Z,26.02
2023-05-22T09:38:38.330Z,25.05
2023-05-22T09:39:44.901Z,24.92
2023-05-22T09:40:47.152Z,24.92
2023-05-22T09:41:50.811Z,25.22
2023-05-22T09:42:52.975Z,25.17
2023-05-22T09:43:55.110Z,25.20
2023-05-22T09:44:57.280Z,24.88
2023-05-22T09:46:06.216Z,24.69
2023-05-22T09:47:09.783Z,24.29
2023-05-22T09:48:12.762Z,24.27
2023-05-22T09:49:16.716Z,24.05
2023-05-22T09:50:19.409Z,24.35
2023-05-22T09:51:23.909Z,24.66
2023-05-22T09:52:28.952Z,25.08
2023-05-22T09:53:33.136Z,25.71
2023-05-22T09:54:35.991Z,26.10
2023-05-22T09:55:38.466Z,26.28
2023-05-22T09:56:41.590Z,27.01
2023-05-22T09:57:45.178Z,27.34
2023-05-22T09:58:47.878Z,27.42
2023-05-22T09:59:55.060Z,27.60
2023-05-22T10:00:57.696Z,27.64
2023-05-22T10:02:02.208Z,27.71
2023-05-22T10:03:15.997Z,27.85
2023-05-22T10:04:18.761Z,27.71
2023-05-22T10:05:24.134Z,27.62
2023-05-22T10:06:27.442Z,27.50
2023-05-22T10:07:33.189Z,27.38
2023-05-22T10:08:59.340Z,27.12
2023-05-22T10:10:08.927Z,27.09
2023-05-22T10:11:11.818Z,26.01
2023-05-22T10:12:16.411Z,26.34
2023-05-22T10:13:19.050Z,26.71
2023-05-22T10:14:22.063Z,26.84
2023-05-22T10:15:24.911Z,26.40
2023-05-22T10:16:27.735Z,26.42
2023-05-22T10:17:29.874Z,26.06
2023-05-22T10:18:32.173Z,25.87
2023-05-22T10:19:38.604Z,25.86
2023-05-22T10:20:42.639Z,25.96
2023-05-22T10:21:45.717Z,25.88
2023-05-22T10:22:51.349Z,26.26
2023-05-22T10:23:54.579Z,26.81
2023-05-22T10:24:57.919Z,27.19
2023-05-22T10:26:00.129Z,28.06
2023-05-22T10:27:02.408Z,28.62
2023-05-22T10:28:05.937Z,29.31
2023-05-22T10:29:12.877Z,28.28
2023-05-22T10:30:40.816Z,28.46
2023-05-22T10:31:48.261Z,29.28
2023-05-22T10:33:16.768Z,29.86
2023-05-22T10:34:26.934Z,29.01
2023-05-22T10:35:46.569Z,29.78
2023-05-22T10:36:51.380Z,29.98
2023-05-22T10:37:55.614Z,30.12
2023-05-22T10:39:23.786Z,30.38
2023-05-22T10:40:30.592Z,30.10
2023-05-22T10:41:33.747Z,30.20
2023-05-22T10:42:37.725Z,29.40
2023-05-22T10:43:45.386Z,29.22
2023-05-22T10:44:48.720Z,29.44
2023-05-22T10:46:02.367Z,29.25
2023-05-22T10:47:11.327Z,29.73
2023-05-22T10:48:13.849Z,29.81
2023-05-22T10:49:22.447Z,28.67
2023-05-22T10:50:24.698Z,29.15
2023-05-22T10:51:26.917Z,29.92
2023-05-22T10:52:29.172Z,29.22
2023-05-22T10:53:32.369Z,28.65
2023-05-22T10:54:43.877Z,28.46
2023-05-22T10:55:53.638Z,28.99
2023-05-22T10:57:16.661Z,29.15
2023-05-22T10:58:37.414Z,29.40
2023-05-22T10:59:40.300Z,30.03
2023-05-22T11:00:42.870Z,30.72
2023-05-22T11:01:45.118Z,31.18
2023-05-22T11:02:47.459Z,31.06
2023-05-22T11:03:55.612Z,31.44
2023-05-22T11:05:20.021Z,31.14
2023-05-22T11:06:38.213Z,31.05
2023-05-22T11:07:41.456Z,31.41
2023-05-22T11:08:43.615Z,32.02
2023-05-22T11:09:48.133Z,32.27
2023-05-22T11:10:54.462Z,31.86
2023-05-22T11:12:18.353Z,31.59
2023-05-22T11:13:20.540Z,32.01
2023-05-22T11:14:25.923Z,31.95
2023-05-22T11:15:32.115Z,32.64
2023-05-22T11:16:34.635Z,32.71
2023-05-22T11:17:39.729Z,32.84
2023-05-22T11:18:45.149Z,31.67
2023-05-22T11:19:59.535Z,29.99
2023-05-22T11:21:01.897Z,30.31
2023-05-22T11:22:05.044Z,31.15
2023-05-22T11:23:07.968Z,31.50
2023-05-22T11:24:10.599Z,31.62
2023-05-22T11:25:17.944Z,31.77
2023-05-22T11:26:26.352Z,31.73
2023-05-22T11:27:32.702Z,32.13
2023-05-22T11:28:34.893Z,31.69
2023-05-22T11:29:38.454Z,32.28
2023-05-22T11:30:41.378Z,32.16
2023-05-22T11:31:44.061Z,32.12
2023-05-22T11:32:48.160Z,32.06
2023-05-22T11:33:50.704Z,32.20
2023-05-22T11:34:53.125Z,32.39
2023-05-22T11:35:55.422Z,33.10
2023-05-22T11:36:59.814Z,31.27
2023-05-22T11:38:04.842Z,30.52
2023-05-22T11:39:07.378Z,30.37
2023-05-22T11:40:10.257Z,31.03
2023-05-22T11:41:13.004Z,31.40
2023-05-22T11:42:15.254Z,32.06
2023-05-22T11:43:29.871Z,32.68
2023-05-22T11:44:32.041Z,32.48
2023-05-22T11:45:37.728Z,32.92
2023-05-22T11:46:40.385Z,32.85
2023-05-22T11:47:43.648Z,33.50
2023-05-22T11:48:47.682Z,33.71
2023-05-22T11:49:49.885Z,33.61
2023-05-22T11:50:52.028Z,33.16
2023-05-22T11:51:54.308Z,33.06
2023-05-22T11:52:56.617Z,33.42
2023-05-22T11:53:58.955Z,33.49
2023-05-22T11:55:01.432Z,33.45
2023-05-22T11:56:05.291Z,33.45
2023-05-22T11:57:08.618Z,33.23
2023-05-22T11:58:10.782Z,33.38
2023-05-22T11:59:12.997Z,33.65
2023-05-22T12:00:15.917Z,34.04
2023-05-22T12:01:18.084Z,34.33
2023-05-22T12:02:21.024Z,34.33
2023-05-22T12:03:25.208Z,34.85
2023-05-22T12:04:28.066Z,34.69
2023-05-22T12:05:32.387Z,33.96
2023-05-22T12:06:34.735Z,33.92
2023-05-22T12:07:37.068Z,34.10
2023-05-22T12:08:39.296Z,34.47
2023-05-22T12:09:42.668Z,34.95
2023-05-22T12:10:49.235Z,34.24
2023-05-22T12:11:51.453Z,33.01
2023-05-22T12:12:54.680Z,32.79
2023-05-22T12:14:05.772Z,32.91
2023-05-22T12:15:08.480Z,32.98
2023-05-22T12:16:23.953Z,32.46
2023-05-22T12:17:28.712Z,32.28
2023-05-22T12:18:37.561Z,32.40
2023-05-22T12:19:40.423Z,33.01
2023-05-22T12:20:43.823Z,32.24
2023-05-22T12:21:45.978Z,32.78
2023-05-22T12:22:49.418Z,32.70
2023-05-22T12:23:51.846Z,31.77
2023-05-22T12:24:54.998Z,31.73
2023-05-22T12:25:58.880Z,32.20
2023-05-22T12:27:01.340Z,31.83
2023-05-22T12:28:03.519Z,31.74
2023-05-22T12:29:05.773Z,31.71
2023-05-22T12:30:12.447Z,31.56
2023-05-22T12:31:24.130Z,31.57
2023-05-22T12:32:29.750Z,31.76
2023-05-22T12:33:32.158Z,32.39
2023-05-22T12:34:35.579Z,32.52
2023-05-22T12:35:38.554Z,32.14
2023-05-22T12:36:42.557Z,32.37
2023-05-22T12:37:49.259Z,32.78
2023-05-22T12:38:55.458Z,32.85
2023-05-22T12:39:58.826Z,32.39
2023-05-22T12:41:00.980Z,32.25
2023-05-22T12:42:03.170Z,33.02
2023-05-22T12:43:05.425Z,33.02
2023-05-22T12:44:07.628Z,33.34
2023-05-22T12:45:10.463Z,33.51
2023-05-22T12:46:12.630Z,33.20
2023-05-22T12:47:14.791Z,33.83
2023-05-22T12:48:17.324Z,33.82
2023-05-22T12:49:19.465Z,33.90
2023-05-22T12:50:21.598Z,33.44
2023-05-22T12:51:27.038Z,33.08
2023-05-22T12:52:29.192Z,32.79
2023-05-22T12:53:31.588Z,32.65
2023-05-22T12:54:33.739Z,32.64
2023-05-22T12:55:36.160Z,33.11
2023-05-22T12:56:38.298Z,33.54
2023-05-22T12:57:40.400Z,34.31
2023-05-22T12:58:43.752Z,34.93
2023-05-22T12:59:45.969Z,33.39
2023-05-22T13:00:48.147Z,33.21
2023-05-22T13:01:50.443Z,34.13
2023-05-22T13:02:52.892Z,34.20
2023-05-22T13:03:55.182Z,33.93
2023-05-22T13:04:57.421Z,33.73
2023-05-22T13:06:00.313Z,34.30
2023-05-22T13:07:02.622Z,34.00
2023-05-22T13:08:04.927Z,33.83
2023-05-22T13:09:07.082Z,33.95
2023-05-22T13:10:10.766Z,33.92
2023-05-22T13:11:31.689Z,33.70
2023-05-22T13:12:34.031Z,33.99
2023-05-22T13:13:36.307Z,33.81
2023-05-22T13:14:40.534Z,34.10
2023-05-22T13:15:43.189Z,34.18
2023-05-22T13:16:45.340Z,34.12
2023-05-22T13:17:47.547Z,34.21
2023-05-22T13:18:49.751Z,34.76
2023-05-22T13:19:52.223Z,35.09
2023-05-22T13:20:56.396Z,35.03
2023-05-22T13:21:58.623Z,35.01
2023-05-22T13:23:00.981Z,34.90
2023-05-22T13:24:04.409Z,34.45
2023-05-22T13:25:06.803Z,34.57
2023-05-22T13:26:09.081Z,34.72
2023-05-22T13:27:11.254Z,34.79
2023-05-22T13:28:13.396Z,33.97
2023-05-22T13:29:15.723Z,34.09
2023-05-22T13:30:17.969Z,34.56
2023-05-22T13:31:20.151Z,34.98
2023-05-22T13:32:22.559Z,34.77
2023-05-22T13:33:25.846Z,34.67
2023-05-22T13:34:28.784Z,35.51
2023-05-22T13:35:31.145Z,36.17
2023-05-22T13:36:33.847Z,35.98
2023-05-22T13:37:36.131Z,36.41
2023-05-22T13:38:38.285Z,36.15
2023-05-22T13:39:41.049Z,36.42
2023-05-22T13:40:43.200Z,36.86
2023-05-22T13:41:45.432Z,36.21
2023-05-22T13:42:47.626Z,36.80
2023-05-22T13:43:49.783Z,37.30